sensor_id;sensor_type;location;lat;lon;timestamp;temperature;humidity
28071;DHT22;15383;48.408;9.968;2024-02-14T00:00:45;9.50;99.90
28071;DHT22;15383;48.408;9.968;2024-02-14T00:03:10;9.50;99.90
28071;DHT22;15383;48.408;9.968;2024-02-14T00:05:36;9.40;99.90
28071;DHT22;15383;48.408;9.968;2024-02-14T00:08:01;9.50;99.90
28071;DHT22;15383;48.408;9.968;2024-02-14T00:10:28;9.50;99.90
28071;DHT22;15383;48.408;9.968;2024-02-14T00:12:54;9.50;99.90
28071;DHT22;15383;48.408;9.968;2024-02-14T00:15:20;9.50;99.90
28071;DHT22;15383;48.408;9.968;2024-02-14T00:17:45;9.50;99.90
28071;DHT22;15383;48.408;9.968;2024-02-14T00:20:11;9.50;99.90
28071;DHT22;15383;48.408;9.968;2024-02-14T00:22:39;9.50;99.90
28071;DHT22;15383;48.408;9.968;2024-02-14T00:25:05;9.40;99.90
28071;DHT22;15383;48.408;9.968;2024-02-14T00:27:30;9.40;99.90
28071;DHT22;15383;48.408;9.968;2024-02-14T00:29:56;9.40;99.90
28071;DHT22;15383;48.408;9.968;2024-02-14T00:32:22;9.40;99.90
28071;DHT22;15383;48.408;9.968;2024-02-14T00:34:47;9.40;99.90
28071;DHT22;15383;48.408;9.968;2024-02-14T00:37:14;9.40;99.90
28071;DHT22;15383;48.408;9.968;2024-02-14T00:39:40;9.40;99.90
28071;DHT22;15383;48.408;9.968;2024-02-14T00:42:05;9.40;99.90
28071;DHT22;15383;48.408;9.968;2024-02-14T00:44:31;9.40;99.90
28071;DHT22;15383;48.408;9.968;2024-02-14T00:46:57;9.40;99.90
28071;DHT22;15383;48.408;9.968;2024-02-14T00:49:27;9.40;99.90
28071;DHT22;15383;48.408;9.968;2024-02-14T00:51:53;9.40;99.90
28071;DHT22;15383;48.408;9.968;2024-02-14T00:54:19;9.40;99.90
28071;DHT22;15383;48.408;9.968;2024-02-14T00:56:45;9.40;99.90
28071;DHT22;15383;48.408;9.968;2024-02-14T00:59:10;9.40;99.90
28071;DHT22;15383;48.408;9.968;2024-02-14T01:01:36;9.40;99.90
28071;DHT22;15383;48.408;9.968;2024-02-14T01:04:01;9.40;99.90
28071;DHT22;15383;48.408;9.968;2024-02-14T01:06:30;9.40;99.90
28071;DHT22;15383;48.408;9.968;2024-02-14T01:08:55;9.40;99.90
28071;DHT22;15383;48.408;9.968;2024-02-14T01:11:21;9.40;99.90
28071;DHT22;15383;48.408;9.968;2024-02-14T01:13:46;9.40;99.90
28071;DHT22;15383;48.408;9.968;2024-02-14T01:16:12;9.40;99.90
28071;DHT22;15383;48.408;9.968;2024-02-14T01:18:38;9.40;99.90
28071;DHT22;15383;48.408;9.968;2024-02-14T01:21:03;9.40;99.90
28071;DHT22;15383;48.408;9.968;2024-02-14T01:23:29;9.40;99.90
28071;DHT22;15383;48.408;9.968;2024-02-14T01:25:54;9.40;99.90
28071;DHT22;15383;48.408;9.968;2024-02-14T01:28:21;9.40;99.90
28071;DHT22;15383;48.408;9.968;2024-02-14T01:30:46;9.40;99.90
28071;DHT22;15383;48.408;9.968;2024-02-14T01:33:12;9.40;99.90
28071;DHT22;15383;48.408;9.968;2024-02-14T01:35:37;9.40;99.90
28071;DHT22;15383;48.408;9.968;2024-02-14T01:38:03;9.40;99.90
28071;DHT22;15383;48.408;9.968;2024-02-14T01:40:29;9.40;99.90
28071;DHT22;15383;48.408;9.968;2024-02-14T01:42:54;9.40;99.90
28071;DHT22;15383;48.408;9.968;2024-02-14T01:45:21;9.40;99.90
28071;DHT22;15383;48.408;9.968;2024-02-14T01:47:47;9.40;99.90
28071;DHT22;15383;48.408;9.968;2024-02-14T01:50:13;9.40;99.90
28071;DHT22;15383;48.408;9.968;2024-02-14T01:52:40;9.40;99.90
28071;DHT22;15383;48.408;9.968;2024-02-14T01:55:08;9.30;99.90
28071;DHT22;15383;48.408;9.968;2024-02-14T01:57:34;9.40;99.90
28071;DHT22;15383;48.408;9.968;2024-02-14T02:00:03;9.40;99.90
28071;DHT22;15383;48.408;9.968;2024-02-14T02:02:34;9.30;99.90
28071;DHT22;15383;48.408;9.968;2024-02-14T02:05:02;9.40;99.90
28071;DHT22;15383;48.408;9.968;2024-02-14T02:07:28;9.30;99.90
28071;DHT22;15383;48.408;9.968;2024-02-14T02:09:54;9.40;99.90
28071;DHT22;15383;48.408;9.968;2024-02-14T02:12:19;9.40;99.90
28071;DHT22;15383;48.408;9.968;2024-02-14T02:14:45;9.40;99.90
28071;DHT22;15383;48.408;9.968;2024-02-14T02:17:11;9.40;99.90
28071;DHT22;15383;48.408;9.968;2024-02-14T02:19:37;9.40;99.90
28071;DHT22;15383;48.408;9.968;2024-02-14T02:22:03;9.40;99.90
28071;DHT22;15383;48.408;9.968;2024-02-14T02:24:30;9.40;99.90
28071;DHT22;15383;48.408;9.968;2024-02-14T02:26:56;9.40;99.90
28071;DHT22;15383;48.408;9.968;2024-02-14T02:29:22;9.40;99.90
28071;DHT22;15383;48.408;9.968;2024-02-14T02:31:47;9.40;99.90
28071;DHT22;15383;48.408;9.968;2024-02-14T02:34:13;9.40;99.90
28071;DHT22;15383;48.408;9.968;2024-02-14T02:36:40;9.40;99.90
28071;DHT22;15383;48.408;9.968;2024-02-14T02:39:06;9.40;99.90
28071;DHT22;15383;48.408;9.968;2024-02-14T02:41:31;9.40;99.90
28071;DHT22;15383;48.408;9.968;2024-02-14T02:43:57;9.40;99.90
28071;DHT22;15383;48.408;9.968;2024-02-14T02:46:23;9.40;99.90
28071;DHT22;15383;48.408;9.968;2024-02-14T02:48:49;9.40;99.90
28071;DHT22;15383;48.408;9.968;2024-02-14T02:51:17;9.40;99.90
28071;DHT22;15383;48.408;9.968;2024-02-14T02:53:43;9.40;99.90
28071;DHT22;15383;48.408;9.968;2024-02-14T02:56:09;9.40;99.90
28071;DHT22;15383;48.408;9.968;2024-02-14T02:58:34;9.30;99.90
28071;DHT22;15383;48.408;9.968;2024-02-14T03:01:00;9.30;99.90
28071;DHT22;15383;48.408;9.968;2024-02-14T03:03:26;9.30;99.90
28071;DHT22;15383;48.408;9.968;2024-02-14T03:05:53;9.40;99.90
28071;DHT22;15383;48.408;9.968;2024-02-14T03:08:20;9.30;99.90
28071;DHT22;15383;48.408;9.968;2024-02-14T03:10:47;9.30;99.90
28071;DHT22;15383;48.408;9.968;2024-02-14T03:13:12;9.40;99.90
28071;DHT22;15383;48.408;9.968;2024-02-14T03:15:42;9.40;99.90
28071;DHT22;15383;48.408;9.968;2024-02-14T03:18:09;9.30;99.90
28071;DHT22;15383;48.408;9.968;2024-02-14T03:20:35;9.40;99.90
28071;DHT22;15383;48.408;9.968;2024-02-14T03:23:01;9.40;99.90
28071;DHT22;15383;48.408;9.968;2024-02-14T03:25:29;9.40;99.90
28071;DHT22;15383;48.408;9.968;2024-02-14T03:27:54;9.40;99.90
28071;DHT22;15383;48.408;9.968;2024-02-14T03:30:22;9.30;99.90
28071;DHT22;15383;48.408;9.968;2024-02-14T03:32:49;9.40;99.90
28071;DHT22;15383;48.408;9.968;2024-02-14T03:35:15;9.30;99.90
28071;DHT22;15383;48.408;9.968;2024-02-14T03:37:42;9.40;99.90
28071;DHT22;15383;48.408;9.968;2024-02-14T03:40:09;9.40;99.90
28071;DHT22;15383;48.408;9.968;2024-02-14T03:42:35;9.30;99.90
28071;DHT22;15383;48.408;9.968;2024-02-14T03:45:00;9.40;99.90
28071;DHT22;15383;48.408;9.968;2024-02-14T03:47:34;9.40;99.90
28071;DHT22;15383;48.408;9.968;2024-02-14T03:50:00;9.30;99.90
28071;DHT22;15383;48.408;9.968;2024-02-14T03:52:25;9.30;99.90
28071;DHT22;15383;48.408;9.968;2024-02-14T03:54:52;9.30;99.90
28071;DHT22;15383;48.408;9.968;2024-02-14T03:57:17;9.30;99.90
28071;DHT22;15383;48.408;9.968;2024-02-14T03:59:43;9.30;99.90
28071;DHT22;15383;48.408;9.968;2024-02-14T04:02:09;9.30;99.90
28071;DHT22;15383;48.408;9.968;2024-02-14T04:04:37;9.30;99.90
28071;DHT22;15383;48.408;9.968;2024-02-14T04:07:04;9.30;99.90
28071;DHT22;15383;48.408;9.968;2024-02-14T04:09:29;9.30;99.90
28071;DHT22;15383;48.408;9.968;2024-02-14T04:11:55;9.30;99.90
28071;DHT22;15383;48.408;9.968;2024-02-14T04:14:20;9.30;99.90
28071;DHT22;15383;48.408;9.968;2024-02-14T04:16:46;9.30;99.90
28071;DHT22;15383;48.408;9.968;2024-02-14T04:19:12;9.30;99.90
28071;DHT22;15383;48.408;9.968;2024-02-14T04:21:38;9.30;99.90
28071;DHT22;15383;48.408;9.968;2024-02-14T04:24:04;9.30;99.90
28071;DHT22;15383;48.408;9.968;2024-02-14T04:26:30;9.30;99.90
28071;DHT22;15383;48.408;9.968;2024-02-14T04:28:55;9.30;99.90
28071;DHT22;15383;48.408;9.968;2024-02-14T04:31:21;9.30;99.90
28071;DHT22;15383;48.408;9.968;2024-02-14T04:33:47;9.30;99.90
28071;DHT22;15383;48.408;9.968;2024-02-14T04:36:18;9.30;99.90
28071;DHT22;15383;48.408;9.968;2024-02-14T04:38:44;9.30;99.90
28071;DHT22;15383;48.408;9.968;2024-02-14T04:41:10;9.30;99.90
28071;DHT22;15383;48.408;9.968;2024-02-14T04:43:35;9.30;99.90
28071;DHT22;15383;48.408;9.968;2024-02-14T04:46:01;9.30;99.90
28071;DHT22;15383;48.408;9.968;2024-02-14T04:48:26;9.30;99.90
28071;DHT22;15383;48.408;9.968;2024-02-14T04:50:53;9.30;99.90
28071;DHT22;15383;48.408;9.968;2024-02-14T04:53:18;9.20;99.90
28071;DHT22;15383;48.408;9.968;2024-02-14T04:55:45;9.20;99.90
28071;DHT22;15383;48.408;9.968;2024-02-14T04:58:10;9.20;99.90
28071;DHT22;15383;48.408;9.968;2024-02-14T05:00:36;9.20;99.90
28071;DHT22;15383;48.408;9.968;2024-02-14T05:03:01;9.20;99.90
28071;DHT22;15383;48.408;9.968;2024-02-14T05:05:27;9.20;99.90
28071;DHT22;15383;48.408;9.968;2024-02-14T05:07:53;9.10;99.90
28071;DHT22;15383;48.408;9.968;2024-02-14T05:10:19;9.10;99.90
28071;DHT22;15383;48.408;9.968;2024-02-14T05:12:44;9.10;99.90
28071;DHT22;15383;48.408;9.968;2024-02-14T05:15:10;9.20;99.90
28071;DHT22;15383;48.408;9.968;2024-02-14T05:17:37;9.20;99.90
28071;DHT22;15383;48.408;9.968;2024-02-14T05:20:05;9.20;99.90
28071;DHT22;15383;48.408;9.968;2024-02-14T05:22:38;9.20;99.90
28071;DHT22;15383;48.408;9.968;2024-02-14T05:25:04;9.20;99.90
28071;DHT22;15383;48.408;9.968;2024-02-14T05:27:33;9.20;99.90
28071;DHT22;15383;48.408;9.968;2024-02-14T05:29:59;9.20;99.90
28071;DHT22;15383;48.408;9.968;2024-02-14T05:32:24;9.20;99.90
28071;DHT22;15383;48.408;9.968;2024-02-14T05:34:51;9.20;99.90
28071;DHT22;15383;48.408;9.968;2024-02-14T05:37:16;9.20;99.90
28071;DHT22;15383;48.408;9.968;2024-02-14T05:39:42;9.20;99.90
28071;DHT22;15383;48.408;9.968;2024-02-14T05:42:08;9.20;99.90
28071;DHT22;15383;48.408;9.968;2024-02-14T05:44:34;9.20;99.90
28071;DHT22;15383;48.408;9.968;2024-02-14T05:46:59;9.20;99.90
28071;DHT22;15383;48.408;9.968;2024-02-14T05:49:25;9.20;99.90
28071;DHT22;15383;48.408;9.968;2024-02-14T05:51:51;9.20;99.90
28071;DHT22;15383;48.408;9.968;2024-02-14T05:54:18;9.20;99.90
28071;DHT22;15383;48.408;9.968;2024-02-14T05:56:45;9.20;99.90
28071;DHT22;15383;48.408;9.968;2024-02-14T05:59:11;9.20;99.90
28071;DHT22;15383;48.408;9.968;2024-02-14T06:01:37;9.20;99.90
28071;DHT22;15383;48.408;9.968;2024-02-14T06:04:02;9.10;99.90
28071;DHT22;15383;48.408;9.968;2024-02-14T06:06:28;9.10;99.90
28071;DHT22;15383;48.408;9.968;2024-02-14T06:08:53;9.10;99.90
28071;DHT22;15383;48.408;9.968;2024-02-14T06:11:20;9.10;99.90
28071;DHT22;15383;48.408;9.968;2024-02-14T06:13:47;9.20;99.90
28071;DHT22;15383;48.408;9.968;2024-02-14T06:16:13;9.20;99.90
28071;DHT22;15383;48.408;9.968;2024-02-14T06:18:39;9.10;99.90
28071;DHT22;15383;48.408;9.968;2024-02-14T06:21:07;9.10;99.90
28071;DHT22;15383;48.408;9.968;2024-02-14T06:23:33;9.20;99.90
28071;DHT22;15383;48.408;9.968;2024-02-14T06:25:59;9.10;99.90
28071;DHT22;15383;48.408;9.968;2024-02-14T06:28:24;9.20;99.90
28071;DHT22;15383;48.408;9.968;2024-02-14T06:30:50;9.20;99.90
28071;DHT22;15383;48.408;9.968;2024-02-14T06:33:15;9.20;99.90
28071;DHT22;15383;48.408;9.968;2024-02-14T06:35:41;9.20;99.90
28071;DHT22;15383;48.408;9.968;2024-02-14T06:38:07;9.20;99.90
28071;DHT22;15383;48.408;9.968;2024-02-14T06:40:33;9.20;99.90
28071;DHT22;15383;48.408;9.968;2024-02-14T06:42:59;9.20;99.90
28071;DHT22;15383;48.408;9.968;2024-02-14T06:45:25;9.20;99.90
28071;DHT22;15383;48.408;9.968;2024-02-14T06:47:51;9.20;99.90
28071;DHT22;15383;48.408;9.968;2024-02-14T06:50:17;9.20;99.90
28071;DHT22;15383;48.408;9.968;2024-02-14T06:52:42;9.20;99.90
28071;DHT22;15383;48.408;9.968;2024-02-14T06:55:08;9.20;99.90
28071;DHT22;15383;48.408;9.968;2024-02-14T06:57:34;9.20;99.90
28071;DHT22;15383;48.408;9.968;2024-02-14T06:59:59;9.20;99.90
28071;DHT22;15383;48.408;9.968;2024-02-14T07:02:25;9.20;99.90
28071;DHT22;15383;48.408;9.968;2024-02-14T07:04:53;9.20;99.90
28071;DHT22;15383;48.408;9.968;2024-02-14T07:07:19;9.20;99.90
28071;DHT22;15383;48.408;9.968;2024-02-14T07:09:45;9.20;99.90
28071;DHT22;15383;48.408;9.968;2024-02-14T07:12:11;9.20;99.90
28071;DHT22;15383;48.408;9.968;2024-02-14T07:14:36;9.20;99.90
28071;DHT22;15383;48.408;9.968;2024-02-14T07:17:02;9.20;99.90
28071;DHT22;15383;48.408;9.968;2024-02-14T07:19:28;9.20;99.90
28071;DHT22;15383;48.408;9.968;2024-02-14T07:21:54;9.20;99.90
28071;DHT22;15383;48.408;9.968;2024-02-14T07:24:19;9.20;99.90
28071;DHT22;15383;48.408;9.968;2024-02-14T07:26:45;9.20;99.90
28071;DHT22;15383;48.408;9.968;2024-02-14T07:29:11;9.20;99.90
28071;DHT22;15383;48.408;9.968;2024-02-14T07:31:37;9.20;99.90
28071;DHT22;15383;48.408;9.968;2024-02-14T07:34:02;9.20;99.90
28071;DHT22;15383;48.408;9.968;2024-02-14T07:36:31;9.20;99.90
28071;DHT22;15383;48.408;9.968;2024-02-14T07:38:57;9.20;99.90
28071;DHT22;15383;48.408;9.968;2024-02-14T07:41:23;9.20;99.90
28071;DHT22;15383;48.408;9.968;2024-02-14T07:43:48;9.20;99.90
28071;DHT22;15383;48.408;9.968;2024-02-14T07:46:18;9.20;99.90
28071;DHT22;15383;48.408;9.968;2024-02-14T07:48:44;9.20;99.90
28071;DHT22;15383;48.408;9.968;2024-02-14T07:51:10;9.20;99.90
28071;DHT22;15383;48.408;9.968;2024-02-14T07:53:35;9.20;99.90
28071;DHT22;15383;48.408;9.968;2024-02-14T07:56:01;9.20;99.90
28071;DHT22;15383;48.408;9.968;2024-02-14T07:58:26;9.20;99.90
28071;DHT22;15383;48.408;9.968;2024-02-14T08:00:52;9.20;99.90
28071;DHT22;15383;48.408;9.968;2024-02-14T08:03:17;9.20;99.90
28071;DHT22;15383;48.408;9.968;2024-02-14T08:05:43;9.20;99.90
28071;DHT22;15383;48.408;9.968;2024-02-14T08:08:09;9.30;99.90
28071;DHT22;15383;48.408;9.968;2024-02-14T08:10:34;9.30;99.90
28071;DHT22;15383;48.408;9.968;2024-02-14T08:13:00;9.30;99.90
28071;DHT22;15383;48.408;9.968;2024-02-14T08:15:25;9.30;99.90
28071;DHT22;15383;48.408;9.968;2024-02-14T08:17:51;9.30;99.90
28071;DHT22;15383;48.408;9.968;2024-02-14T08:20:20;9.30;99.90
28071;DHT22;15383;48.408;9.968;2024-02-14T08:22:46;9.30;99.90
28071;DHT22;15383;48.408;9.968;2024-02-14T08:25:11;9.30;99.90
28071;DHT22;15383;48.408;9.968;2024-02-14T08:27:37;9.30;99.90
28071;DHT22;15383;48.408;9.968;2024-02-14T08:30:03;9.30;99.90
28071;DHT22;15383;48.408;9.968;2024-02-14T08:32:31;9.30;99.90
28071;DHT22;15383;48.408;9.968;2024-02-14T08:34:57;9.30;99.90
28071;DHT22;15383;48.408;9.968;2024-02-14T08:37:23;9.30;99.90
28071;DHT22;15383;48.408;9.968;2024-02-14T08:39:50;9.30;99.90
28071;DHT22;15383;48.408;9.968;2024-02-14T08:42:15;9.30;99.90
28071;DHT22;15383;48.408;9.968;2024-02-14T08:44:41;9.30;99.90
28071;DHT22;15383;48.408;9.968;2024-02-14T08:47:07;9.30;99.90
28071;DHT22;15383;48.408;9.968;2024-02-14T08:49:33;9.30;99.90
28071;DHT22;15383;48.408;9.968;2024-02-14T08:51:59;9.30;99.90
28071;DHT22;15383;48.408;9.968;2024-02-14T08:54:24;9.30;99.90
28071;DHT22;15383;48.408;9.968;2024-02-14T08:56:50;9.30;99.90
28071;DHT22;15383;48.408;9.968;2024-02-14T08:59:20;9.30;99.90
28071;DHT22;15383;48.408;9.968;2024-02-14T09:01:46;9.30;99.90
28071;DHT22;15383;48.408;9.968;2024-02-14T09:04:11;9.40;99.90
28071;DHT22;15383;48.408;9.968;2024-02-14T09:06:37;9.40;99.90
28071;DHT22;15383;48.408;9.968;2024-02-14T09:09:04;9.40;99.90
28071;DHT22;15383;48.408;9.968;2024-02-14T09:11:30;9.40;99.90
28071;DHT22;15383;48.408;9.968;2024-02-14T09:13:57;9.40;99.90
28071;DHT22;15383;48.408;9.968;2024-02-14T09:16:27;9.40;99.90
28071;DHT22;15383;48.408;9.968;2024-02-14T09:18:53;9.40;99.90
28071;DHT22;15383;48.408;9.968;2024-02-14T09:21:18;9.40;99.90
28071;DHT22;15383;48.408;9.968;2024-02-14T09:23:47;9.40;99.90
28071;DHT22;15383;48.408;9.968;2024-02-14T09:26:12;9.50;99.90
28071;DHT22;15383;48.408;9.968;2024-02-14T09:28:40;9.50;99.90
28071;DHT22;15383;48.408;9.968;2024-02-14T09:31:06;9.50;99.90
28071;DHT22;15383;48.408;9.968;2024-02-14T09:33:31;9.60;99.90
28071;DHT22;15383;48.408;9.968;2024-02-14T09:35:57;9.60;99.90
28071;DHT22;15383;48.408;9.968;2024-02-14T09:38:22;9.60;99.90
28071;DHT22;15383;48.408;9.968;2024-02-14T09:40:53;9.70;99.90
28071;DHT22;15383;48.408;9.968;2024-02-14T09:43:31;9.80;99.90
28071;DHT22;15383;48.408;9.968;2024-02-14T09:46:00;10.00;99.90
28071;DHT22;15383;48.408;9.968;2024-02-14T09:48:29;10.10;99.90
28071;DHT22;15383;48.408;9.968;2024-02-14T09:50:56;10.30;99.90
28071;DHT22;15383;48.408;9.968;2024-02-14T09:53:23;10.50;99.90
28071;DHT22;15383;48.408;9.968;2024-02-14T09:55:49;10.60;99.90
28071;DHT22;15383;48.408;9.968;2024-02-14T09:58:16;10.70;99.90
28071;DHT22;15383;48.408;9.968;2024-02-14T10:00:41;10.80;99.90
28071;DHT22;15383;48.408;9.968;2024-02-14T10:03:07;10.90;99.90
28071;DHT22;15383;48.408;9.968;2024-02-14T10:05:33;11.00;99.90
28071;DHT22;15383;48.408;9.968;2024-02-14T10:07:59;11.20;99.90
28071;DHT22;15383;48.408;9.968;2024-02-14T10:10:27;11.30;99.90
28071;DHT22;15383;48.408;9.968;2024-02-14T10:12:54;11.30;99.90
28071;DHT22;15383;48.408;9.968;2024-02-14T10:15:21;11.30;99.90
28071;DHT22;15383;48.408;9.968;2024-02-14T10:17:47;11.30;99.90
28071;DHT22;15383;48.408;9.968;2024-02-14T10:20:17;11.20;99.90
28071;DHT22;15383;48.408;9.968;2024-02-14T10:22:42;11.10;99.90
28071;DHT22;15383;48.408;9.968;2024-02-14T10:25:09;11.10;99.90
28071;DHT22;15383;48.408;9.968;2024-02-14T10:27:39;11.10;99.90
28071;DHT22;15383;48.408;9.968;2024-02-14T10:30:07;11.00;99.90
28071;DHT22;15383;48.408;9.968;2024-02-14T10:32:35;10.80;99.90
28071;DHT22;15383;48.408;9.968;2024-02-14T10:35:06;10.60;99.90
28071;DHT22;15383;48.408;9.968;2024-02-14T10:37:37;10.40;99.90
28071;DHT22;15383;48.408;9.968;2024-02-14T10:40:03;10.30;99.90
28071;DHT22;15383;48.408;9.968;2024-02-14T10:42:30;10.40;99.90
28071;DHT22;15383;48.408;9.968;2024-02-14T10:44:56;10.50;99.90
28071;DHT22;15383;48.408;9.968;2024-02-14T10:47:25;10.50;99.90
28071;DHT22;15383;48.408;9.968;2024-02-14T10:50:00;10.40;99.90
28071;DHT22;15383;48.408;9.968;2024-02-14T10:52:36;10.50;99.90
28071;DHT22;15383;48.408;9.968;2024-02-14T10:55:05;10.60;99.90
28071;DHT22;15383;48.408;9.968;2024-02-14T10:57:31;11.00;99.90
28071;DHT22;15383;48.408;9.968;2024-02-14T11:00:03;11.40;99.90
28071;DHT22;15383;48.408;9.968;2024-02-14T11:02:30;11.60;99.90
28071;DHT22;15383;48.408;9.968;2024-02-14T11:04:58;11.70;99.90
28071;DHT22;15383;48.408;9.968;2024-02-14T11:07:23;11.90;99.90
28071;DHT22;15383;48.408;9.968;2024-02-14T11:10:06;11.90;99.90
28071;DHT22;15383;48.408;9.968;2024-02-14T11:12:33;11.90;99.90
28071;DHT22;15383;48.408;9.968;2024-02-14T11:15:00;12.00;99.90
28071;DHT22;15383;48.408;9.968;2024-02-14T11:17:26;12.10;99.90
28071;DHT22;15383;48.408;9.968;2024-02-14T11:19:53;12.10;99.90
28071;DHT22;15383;48.408;9.968;2024-02-14T11:22:19;12.20;99.90
28071;DHT22;15383;48.408;9.968;2024-02-14T11:24:48;12.30;99.90
28071;DHT22;15383;48.408;9.968;2024-02-14T11:27:17;12.50;99.90
28071;DHT22;15383;48.408;9.968;2024-02-14T11:29:52;12.70;99.90
28071;DHT22;15383;48.408;9.968;2024-02-14T11:32:18;12.90;99.90
28071;DHT22;15383;48.408;9.968;2024-02-14T11:34:52;13.00;99.90
28071;DHT22;15383;48.408;9.968;2024-02-14T11:37:27;13.00;99.90
28071;DHT22;15383;48.408;9.968;2024-02-14T11:39:53;12.90;99.90
28071;DHT22;15383;48.408;9.968;2024-02-14T11:42:21;12.90;99.90
28071;DHT22;15383;48.408;9.968;2024-02-14T11:44:46;12.80;99.90
28071;DHT22;15383;48.408;9.968;2024-02-14T11:47:12;12.70;99.90
28071;DHT22;15383;48.408;9.968;2024-02-14T11:49:38;12.80;99.90
28071;DHT22;15383;48.408;9.968;2024-02-14T11:52:04;12.90;99.90
28071;DHT22;15383;48.408;9.968;2024-02-14T11:54:30;12.90;99.90
28071;DHT22;15383;48.408;9.968;2024-02-14T11:56:56;12.80;99.90
28071;DHT22;15383;48.408;9.968;2024-02-14T11:59:22;12.60;99.90
28071;DHT22;15383;48.408;9.968;2024-02-14T12:01:48;12.30;99.90
28071;DHT22;15383;48.408;9.968;2024-02-14T12:04:17;12.10;99.90
28071;DHT22;15383;48.408;9.968;2024-02-14T12:06:43;12.10;99.90
28071;DHT22;15383;48.408;9.968;2024-02-14T12:09:09;12.10;99.90
28071;DHT22;15383;48.408;9.968;2024-02-14T12:11:38;12.00;99.90
28071;DHT22;15383;48.408;9.968;2024-02-14T12:14:09;12.00;99.90
28071;DHT22;15383;48.408;9.968;2024-02-14T12:16:38;12.00;99.90
28071;DHT22;15383;48.408;9.968;2024-02-14T12:21:39;12.10;99.90
28071;DHT22;15383;48.408;9.968;2024-02-14T12:24:08;12.10;99.90
28071;DHT22;15383;48.408;9.968;2024-02-14T12:26:35;12.00;99.90
28071;DHT22;15383;48.408;9.968;2024-02-14T12:29:05;12.00;99.90
28071;DHT22;15383;48.408;9.968;2024-02-14T12:31:32;11.90;99.90
28071;DHT22;15383;48.408;9.968;2024-02-14T12:33:58;11.80;99.90
28071;DHT22;15383;48.408;9.968;2024-02-14T12:36:26;11.70;99.90
28071;DHT22;15383;48.408;9.968;2024-02-14T12:38:53;11.50;99.90
28071;DHT22;15383;48.408;9.968;2024-02-14T12:41:19;11.40;99.90
28071;DHT22;15383;48.408;9.968;2024-02-14T12:43:44;11.30;99.90
28071;DHT22;15383;48.408;9.968;2024-02-14T12:46:10;11.30;99.90
28071;DHT22;15383;48.408;9.968;2024-02-14T12:48:36;11.20;99.90
28071;DHT22;15383;48.408;9.968;2024-02-14T12:51:01;11.10;99.90
28071;DHT22;15383;48.408;9.968;2024-02-14T12:53:27;11.10;99.90
28071;DHT22;15383;48.408;9.968;2024-02-14T12:55:52;11.10;99.90
28071;DHT22;15383;48.408;9.968;2024-02-14T12:58:18;11.10;99.90
28071;DHT22;15383;48.408;9.968;2024-02-14T13:00:44;11.10;99.90
28071;DHT22;15383;48.408;9.968;2024-02-14T13:03:10;11.10;99.90
28071;DHT22;15383;48.408;9.968;2024-02-14T13:05:36;11.10;99.90
28071;DHT22;15383;48.408;9.968;2024-02-14T13:08:02;11.10;99.90
28071;DHT22;15383;48.408;9.968;2024-02-14T13:10:28;11.00;99.90
28071;DHT22;15383;48.408;9.968;2024-02-14T13:12:54;10.90;99.90
28071;DHT22;15383;48.408;9.968;2024-02-14T13:15:20;10.90;99.90
28071;DHT22;15383;48.408;9.968;2024-02-14T13:17:46;10.90;99.90
28071;DHT22;15383;48.408;9.968;2024-02-14T13:20:12;10.80;99.90
28071;DHT22;15383;48.408;9.968;2024-02-14T13:22:40;10.80;99.90
28071;DHT22;15383;48.408;9.968;2024-02-14T13:25:06;10.80;99.90
28071;DHT22;15383;48.408;9.968;2024-02-14T13:27:32;10.80;99.90
28071;DHT22;15383;48.408;9.968;2024-02-14T13:29:58;10.80;99.90
28071;DHT22;15383;48.408;9.968;2024-02-14T13:32:24;10.80;99.90
28071;DHT22;15383;48.408;9.968;2024-02-14T13:34:50;10.70;99.90
28071;DHT22;15383;48.408;9.968;2024-02-14T13:37:15;10.70;99.90
28071;DHT22;15383;48.408;9.968;2024-02-14T13:39:41;10.60;99.90
28071;DHT22;15383;48.408;9.968;2024-02-14T13:42:06;10.60;99.90
28071;DHT22;15383;48.408;9.968;2024-02-14T13:44:33;10.60;99.90
28071;DHT22;15383;48.408;9.968;2024-02-14T13:46:59;10.60;99.90
28071;DHT22;15383;48.408;9.968;2024-02-14T13:49:24;10.60;99.90
28071;DHT22;15383;48.408;9.968;2024-02-14T13:51:51;10.50;99.90
28071;DHT22;15383;48.408;9.968;2024-02-14T13:54:21;10.50;99.90
28071;DHT22;15383;48.408;9.968;2024-02-14T13:56:47;10.40;99.90
28071;DHT22;15383;48.408;9.968;2024-02-14T13:59:14;10.40;99.90
28071;DHT22;15383;48.408;9.968;2024-02-14T14:01:40;10.30;99.90
28071;DHT22;15383;48.408;9.968;2024-02-14T14:04:06;10.30;99.90
28071;DHT22;15383;48.408;9.968;2024-02-14T14:06:31;10.30;99.90
28071;DHT22;15383;48.408;9.968;2024-02-14T14:08:57;10.30;99.90
28071;DHT22;15383;48.408;9.968;2024-02-14T14:11:23;10.30;99.90
28071;DHT22;15383;48.408;9.968;2024-02-14T14:13:48;10.30;99.90
28071;DHT22;15383;48.408;9.968;2024-02-14T14:16:14;10.30;99.90
28071;DHT22;15383;48.408;9.968;2024-02-14T14:18:40;10.30;99.90
28071;DHT22;15383;48.408;9.968;2024-02-14T14:21:06;10.30;99.90
28071;DHT22;15383;48.408;9.968;2024-02-14T14:23:32;10.20;99.90
28071;DHT22;15383;48.408;9.968;2024-02-14T14:25:58;10.20;99.90
28071;DHT22;15383;48.408;9.968;2024-02-14T14:28:24;10.20;99.90
28071;DHT22;15383;48.408;9.968;2024-02-14T14:30:53;10.20;99.90
28071;DHT22;15383;48.408;9.968;2024-02-14T14:33:20;10.30;99.90
28071;DHT22;15383;48.408;9.968;2024-02-14T14:35:46;10.30;99.90
28071;DHT22;15383;48.408;9.968;2024-02-14T14:38:14;10.20;99.90
28071;DHT22;15383;48.408;9.968;2024-02-14T14:40:40;10.30;99.90
28071;DHT22;15383;48.408;9.968;2024-02-14T14:43:06;10.30;99.90
28071;DHT22;15383;48.408;9.968;2024-02-14T14:45:32;10.30;99.90
28071;DHT22;15383;48.408;9.968;2024-02-14T14:47:58;10.30;99.90
28071;DHT22;15383;48.408;9.968;2024-02-14T14:50:23;10.30;99.90
28071;DHT22;15383;48.408;9.968;2024-02-14T14:52:51;10.30;99.90
28071;DHT22;15383;48.408;9.968;2024-02-14T14:55:17;10.30;99.90
28071;DHT22;15383;48.408;9.968;2024-02-14T14:57:43;10.30;99.90
28071;DHT22;15383;48.408;9.968;2024-02-14T15:00:09;10.30;99.90
28071;DHT22;15383;48.408;9.968;2024-02-14T15:02:39;10.30;99.90
28071;DHT22;15383;48.408;9.968;2024-02-14T15:05:10;10.30;99.90
28071;DHT22;15383;48.408;9.968;2024-02-14T15:07:39;10.30;99.90
28071;DHT22;15383;48.408;9.968;2024-02-14T15:10:06;10.30;99.90
28071;DHT22;15383;48.408;9.968;2024-02-14T15:12:33;10.30;99.90
28071;DHT22;15383;48.408;9.968;2024-02-14T15:15:02;10.30;99.90
28071;DHT22;15383;48.408;9.968;2024-02-14T15:17:27;10.30;99.90
28071;DHT22;15383;48.408;9.968;2024-02-14T15:19:55;10.30;99.90
28071;DHT22;15383;48.408;9.968;2024-02-14T15:22:21;10.20;99.90
28071;DHT22;15383;48.408;9.968;2024-02-14T15:24:46;10.20;99.90
28071;DHT22;15383;48.408;9.968;2024-02-14T15:27:12;10.20;99.90
28071;DHT22;15383;48.408;9.968;2024-02-14T15:29:47;10.20;99.90
28071;DHT22;15383;48.408;9.968;2024-02-14T15:32:31;10.20;99.90
28071;DHT22;15383;48.408;9.968;2024-02-14T15:35:15;10.20;99.90
28071;DHT22;15383;48.408;9.968;2024-02-14T15:37:41;10.20;99.90